メインページ
METAR-TAF:

METAR-TAF

空港 :

Oshawa Executive Airport

オシャワ, オンタリオ州, カナダ

緯度: 43-55-22N, 経度: 78-53-48W, 海抜: 140m

現時点の気象観測

当レポートは43分前の02:00(UTC)に作成
西の風 4kt
気温 -5°C
湿度 86%
気圧 1022 hPa
視程: 14.5km
晴天

METAR: CYOO 070200Z AUTO 26004KT 9SM CLR M05/M07 A3018 RMK SLP228

時間: 21:43 (02:43 UTC)

予報

当レポートは1時間4分前の01:39(UTC)に作成
予報は07日の 02時(UTC)から 07日の 14時(UTC)まで有効
西の風 5kt
視程: 10km
高度2000ftの雲は散在している
高度4000ftの曇り
07日の 02時(UTC)から 07日の 03時(UTC)まで一時的に
視程: 10km
高度2000ftの曇り
弱いにわか雪
07日の 0300時(UTC)から
西の風 10kt
視程: 10km
高度3000ftの雲は散在している
07日の 03時(UTC)から 07日の 09時(UTC)まで一時的に
高度2000ftの千切れ雲あり
07日の 04時(UTC)から 07日の 06時(UTC)まで徐々に
の風 5kt
07日の 0900時(UTC)から
の風 5kt
視程: 10km
高度3000ftの雲は散在している
07日の 09時(UTC)から 07日の 14時(UTC)まで一時的に
高度3000ftの千切れ雲あり

TAF: CYOO 070139Z 0702/0714 28005KT P6SM SCT020 OVC040 TEMPO 0702/0703 P6SM -SHSN OVC020 FM070300 28010KT P6SM SCT030 TEMPO 0703/0709 BKN020 BECMG 0704/0706 35005KT FM070900 35005KT P6SM SCT030 TEMPO 0709/0714 BKN030 RMK FCST BASED ON AUTO OBS. NXT FCST BY 070800Z

4,000以上の空港の気象観測と天気予報(METAR報とTAF報)

利用可能な観測所は地図上に黄色い丸と赤い丸で示す。

丸の上にカーソルを重ねると観測所名を参照できる。

次にクリックすると気象観測と天気予報を参照できる。

マップの切り替え:黒色「×」印の緑ボタンをクリックして拡大、「-」印の緑ボタンをクリックして縮小、緑色の三角印をクリックして隣りの地図に切り替え


METAR-TAF: